Time;durP1;ratioP1;P1;durP2;ratioP2;P2;SDS_P1;SDS_P2;PMS_P1;PMS_P2;Temp;Humidity;BMP_temperature;BMP_pressure;BME280_temperature;BME280_humidity;BME280_pressure;Samples;Min_cycle;Max_cycle;Signal;HPM_P1;HPM_P2
2022/11/07 00:01:14;;;;;;;5.13;1.37;;;11.60;99.90;;;;;;6274107;22;20536;-82
2022/11/07 00:03:40;;;;;;;6.07;1.63;;;11.60;99.90;;;;;;6246969;22;20000;-82
2022/11/07 00:06:06;;;;;;;3.97;1.50;;;11.60;99.90;;;;;;6273887;22;20035;-82
2022/11/07 00:08:32;;;;;;;4.83;1.80;;;11.60;99.90;;;;;;6246733;22;20003;-82
2022/11/07 00:11:02;;;;;;;3.47;1.70;;;11.60;99.90;;;;;;6273937;22;20035;-83
2022/11/07 00:13:28;;;;;;;4.73;1.63;;;11.60;99.90;;;;;;6274324;22;20087;-82
2022/11/07 00:15:59;;;;;;;3.50;1.30;;;11.60;99.90;;;;;;6273845;22;20458;-83
2022/11/07 00:18:24;;;;;;;3.23;1.30;;;11.50;99.90;;;;;;6246830;22;20019;-82
2022/11/07 00:21:05;;;;;;;6.07;1.60;;;11.60;99.90;;;;;;6273873;22;19999;-91
2022/11/07 00:23:31;;;;;;;3.80;1.50;;;11.60;99.90;;;;;;6246979;22;20007;-83
2022/11/07 00:26:11;;;;;;;3.27;1.30;;;11.60;99.90;;;;;;6246877;22;20450;-82
2022/11/07 00:28:38;;;;;;;5.20;1.83;;;11.60;99.90;;;;;;6221744;22;20479;-82
2022/11/07 00:31:06;;;;;;;3.27;1.50;;;11.60;99.90;;;;;;6273648;22;20083;-82
2022/11/07 00:33:32;;;;;;;5.77;1.70;;;11.60;99.90;;;;;;6247007;22;20534;-83
2022/11/07 00:35:59;;;;;;;3.97;1.40;;;11.50;99.90;;;;;;6273838;22;20003;-82
2022/11/07 00:38:25;;;;;;;4.43;1.40;;;11.60;99.90;;;;;;6246660;22;20007;-83
2022/11/07 00:40:58;;;;;;;2.97;1.20;;;11.60;99.90;;;;;;6273398;22;20639;-82
2022/11/07 00:43:24;;;;;;;4.97;1.70;;;11.60;99.90;;;;;;6246793;22;20031;-82
2022/11/07 00:45:50;;;;;;;5.13;1.53;;;11.60;99.90;;;;;;6246390;22;20007;-82
2022/11/07 00:48:19;;;;;;;4.37;1.60;;;11.60;99.90;;;;;;6246735;22;20014;-82
2022/11/07 00:50:44;;;;;;;5.73;1.37;;;11.60;99.90;;;;;;6273446;22;19999;-84
2022/11/07 00:53:10;;;;;;;4.57;1.67;;;11.50;99.90;;;;;;6273796;22;20065;-82
2022/11/07 00:55:36;;;;;;;3.60;1.40;;;11.60;99.90;;;;;;6273868;22;20011;-84
2022/11/07 00:58:02;;;;;;;5.23;1.40;;;11.60;99.90;;;;;;6273484;22;20010;-84
2022/11/07 01:00:28;;;;;;;4.83;1.33;;;11.60;99.90;;;;;;6273463;22;20086;-82
2022/11/07 01:05:39;;;;;;;3.17;1.10;;;11.60;99.90;;;;;;6273533;22;20323;-83
2022/11/07 01:08:05;;;;;;;3.30;1.27;;;11.60;99.90;;;;;;6246408;22;20010;-83
2022/11/07 01:10:31;;;;;;;5.63;1.37;;;11.60;99.90;;;;;;6246141;22;20015;-82
2022/11/07 01:12:57;;;;;;;4.23;1.50;;;11.60;99.90;;;;;;6273527;22;20014;-82
2022/11/07 01:15:23;;;;;;;4.07;1.40;;;11.60;99.90;;;;;;6273720;22;20401;-82
2022/11/07 01:17:49;;;;;;;7.17;1.47;;;11.60;99.90;;;;;;6273290;22;20057;-82
2022/11/07 01:20:15;;;;;;;3.93;1.60;;;11.60;99.90;;;;;;6246099;22;20025;-83
2022/11/07 01:22:40;;;;;;;6.83;1.57;;;11.60;99.90;;;;;;6273458;22;20057;-82
2022/11/07 01:25:07;;;;;;;4.37;1.67;;;11.60;99.90;;;;;;6273896;22;20071;-83
2022/11/07 01:27:32;;;;;;;6.17;1.70;;;11.60;99.90;;;;;;6220838;22;20007;-82
2022/11/07 01:29:58;;;;;;;3.67;1.47;;;11.70;99.90;;;;;;6246074;22;20006;-82
2022/11/07 01:32:24;;;;;;;6.27;1.60;;;11.60;99.90;;;;;;6273576;22;20006;-82
2022/11/07 01:34:50;;;;;;;5.23;1.73;;;11.60;99.90;;;;;;6273375;22;20007;-83
2022/11/07 01:37:16;;;;;;;5.20;1.70;;;11.60;99.90;;;;;;6273675;22;20015;-82
2022/11/07 01:39:41;;;;;;;4.83;1.60;;;11.60;99.90;;;;;;6272946;22;20011;-83
2022/11/07 01:42:11;;;;;;;4.07;1.70;;;11.60;99.90;;;;;;6247203;22;20007;-82
2022/11/07 01:44:39;;;;;;;4.18;1.83;;;11.50;99.90;;;;;;6275833;22;20004;-82
2022/11/07 01:47:06;;;;;;;7.75;1.60;;;11.50;99.90;;;;;;6248639;22;20011;-82
2022/11/07 01:49:36;;;;;;;4.57;1.40;;;11.50;99.90;;;;;;6223056;22;20501;-83
2022/11/07 01:52:07;;;;;;;5.40;1.33;;;11.50;99.90;;;;;;6248758;22;20034;-83
2022/11/07 01:54:44;;;;;;;4.27;1.47;;;11.50;99.90;;;;;;6222929;22;20510;-82
2022/11/07 01:57:16;;;;;;;6.90;1.53;;;11.50;99.90;;;;;;6275242;22;20007;-83
2022/11/07 01:59:42;;;;;;;3.60;1.30;;;11.40;99.90;;;;;;6274952;22;20008;-82
2022/11/07 02:02:08;;;;;;;6.17;1.70;;;11.50;99.90;;;;;;6275341;22;20394;-82
2022/11/07 02:04:35;;;;;;;11.03;1.80;;;11.40;99.90;;;;;;6246974;22;20007;-83
2022/11/07 02:07:14;;;;;;;6.57;1.60;;;11.40;99.90;;;;;;6246501;22;20011;-82
2022/11/07 02:09:41;;;;;;;4.72;1.45;;;11.50;99.90;;;;;;6220932;22;20077;-83
2022/11/07 02:12:07;;;;;;;6.07;1.60;;;11.40;99.90;;;;;;6275509;22;20012;-82
2022/11/07 02:14:33;;;;;;;5.47;1.77;;;11.40;99.90;;;;;;6247961;22;20006;-82
2022/11/07 02:16:59;;;;;;;6.27;1.40;;;11.40;99.90;;;;;;6247803;22;20094;-85
2022/11/07 02:19:47;;;;;;;4.67;1.40;;;11.40;99.90;;;;;;6274833;22;20000;-82
2022/11/07 02:22:35;;;;;;;4.03;1.73;;;11.40;99.90;;;;;;6275508;22;20012;-82
2022/11/07 02:25:05;;;;;;;4.80;1.47;;;11.40;99.90;;;;;;6275219;22;20049;-82
2022/11/07 02:27:32;;;;;;;7.30;1.58;;;11.40;99.90;;;;;;6275158;22;20227;-82
2022/11/07 02:30:10;;;;;;;3.07;1.20;;;11.30;99.90;;;;;;6275188;22;20511;-82
2022/11/07 02:32:36;;;;;;;4.65;1.92;;;11.30;99.90;;;;;;6222836;22;20008;-82
2022/11/07 02:35:06;;;;;;;4.17;1.50;;;11.30;99.90;;;;;;6247920;22;20074;-82
2022/11/07 02:37:34;;;;;;;;;;;11.30;99.90;;;;;;6248405;22;20433;-82
2022/11/07 02:40:03;;;;;;;5.07;1.90;;;11.30;99.90;;;;;;6247827;22;19942;-82
2022/11/07 02:42:42;;;;;;;;;;;11.30;99.90;;;;;;6248461;22;20388;-82
2022/11/07 02:45:32;;;;;;;5.97;1.70;;;11.30;99.90;;;;;;6222681;22;19926;-82
2022/11/07 02:47:58;;;;;;;6.87;1.80;;;11.30;99.90;;;;;;6275070;22;20053;-82
2022/11/07 02:50:24;;;;;;;3.37;1.30;;;11.30;99.90;;;;;;6247806;22;20007;-83
2022/11/07 02:52:49;;;;;;;6.47;1.57;;;11.30;99.90;;;;;;6247634;22;20015;-82
2022/11/07 02:55:16;;;;;;;4.03;1.40;;;11.40;99.90;;;;;;6221896;22;20323;-83
2022/11/07 02:57:42;;;;;;;4.90;1.50;;;11.40;99.90;;;;;;6222225;22;20015;-82
2022/11/07 03:00:10;;;;;;;6.43;1.40;;;11.40;99.90;;;;;;6247389;22;20334;-83
2022/11/07 03:02:35;;;;;;;3.80;1.50;;;11.40;99.90;;;;;;6222291;22;20007;-82
2022/11/07 03:05:01;;;;;;;4.40;1.77;;;11.40;99.90;;;;;;6247674;22;20006;-82
2022/11/07 03:07:27;;;;;;;5.83;1.40;;;11.30;99.90;;;;;;6247473;22;20403;-82
2022/11/07 03:09:53;;;;;;;7.60;1.63;;;11.30;99.90;;;;;;6230810;22;20043;-87
2022/11/07 03:12:19;;;;;;;7.43;1.40;;;11.30;99.90;;;;;;6244109;23;20008;-87
2022/11/07 03:14:45;;;;;;;4.60;1.67;;;11.40;99.90;;;;;;6244402;23;20010;-87
2022/11/07 03:17:10;;;;;;;5.63;1.70;;;11.30;99.90;;;;;;6217051;23;20001;-87
2022/11/07 03:19:36;;;;;;;6.30;1.73;;;11.30;99.90;;;;;;6243689;23;20043;-87
2022/11/07 03:22:02;;;;;;;6.37;1.50;;;11.30;99.90;;;;;;6217062;23;20533;-87
2022/11/07 03:24:28;;;;;;;8.20;1.83;;;11.30;99.90;;;;;;6217014;23;20011;-87
2022/11/07 03:26:54;;;;;;;6.80;1.60;;;11.30;99.90;;;;;;6243790;23;20079;-87
2022/11/07 03:29:22;;;;;;;6.03;1.50;;;11.30;99.90;;;;;;6243580;23;20071;-88
2022/11/07 03:31:47;;;;;;;8.67;2.10;;;11.20;99.90;;;;;;6243760;23;20028;-87
2022/11/07 03:34:13;;;;;;;9.20;2.00;;;11.20;99.90;;;;;;6216975;23;20418;-87
2022/11/07 03:36:39;;;;;;;6.63;1.93;;;11.20;99.90;;;;;;6217064;23;20028;-87
2022/11/07 03:39:05;;;;;;;5.63;1.80;;;11.20;99.90;;;;;;6216744;23;20004;-87
2022/11/07 03:41:31;;;;;;;7.47;2.20;;;11.20;99.90;;;;;;6242470;23;20004;-87
2022/11/07 03:43:57;;;;;;;6.70;2.10;;;11.30;99.90;;;;;;6244148;23;20010;-88
2022/11/07 03:46:22;;;;;;;6.00;1.60;;;11.30;99.90;;;;;;6243875;23;20012;-88
2022/11/07 03:48:48;;;;;;;8.03;1.70;;;11.30;99.90;;;;;;6243436;23;20031;-88
2022/11/07 03:51:14;;;;;;;7.23;1.80;;;11.20;99.90;;;;;;6216784;23;20055;-88
2022/11/07 03:53:40;;;;;;;8.20;1.50;;;11.20;99.90;;;;;;6192188;23;20004;-88
2022/11/07 03:56:10;;;;;;;7.77;1.50;;;11.20;99.90;;;;;;6243855;23;20004;-87
2022/11/07 03:58:37;;;;;;;7.67;1.77;;;11.20;99.90;;;;;;6243385;23;20026;-88
2022/11/07 04:01:04;;;;;;;6.07;2.00;;;11.20;99.90;;;;;;6216696;23;20012;-86
2022/11/07 04:03:31;;;;;;;5.03;1.50;;;11.20;99.90;;;;;;6216700;23;20458;-87
2022/11/07 04:05:57;;;;;;;6.07;1.90;;;11.20;99.90;;;;;;6191229;23;20015;-87
2022/11/07 04:08:22;;;;;;;7.67;1.57;;;11.20;99.90;;;;;;6243526;23;20008;-87
2022/11/07 04:10:48;;;;;;;6.87;1.73;;;11.20;99.90;;;;;;6216613;23;20058;-87
2022/11/07 04:18:44;;;;;;;6.83;1.97;;;11.20;99.90;;;;;;6243194;23;20012;-87
2022/11/07 04:21:09;;;;;;;7.10;1.47;;;11.20;99.90;;;;;;6243297;23;20004;-87
2022/11/07 04:23:35;;;;;;;7.70;1.90;;;11.20;99.90;;;;;;6243367;23;20042;-87
2022/11/07 04:28:45;;;;;;;5.60;1.50;;;11.20;99.90;;;;;;6243442;23;20088;-87
2022/11/07 04:31:11;;;;;;;5.40;1.57;;;11.10;99.90;;;;;;6191349;23;20158;-87
2022/11/07 04:33:37;;;;;;;5.57;1.67;;;11.10;99.90;;;;;;6243377;23;20004;-87
2022/11/07 04:36:12;;;;;;;8.20;2.00;;;11.10;99.90;;;;;;6237664;23;20019;-93
2022/11/07 05:58:15;;;;;;;12.13;2.00;;;11.30;99.90;;;;;;6203362;22;20028;-86
2022/11/07 06:00:41;;;;;;;8.95;2.03;;;11.20;99.90;;;;;;6241322;23;20004;-86
2022/11/07 06:07:02;;;;;;;7.23;2.37;;;11.20;99.90;;;;;;6147988;23;20578;-90
2022/11/07 06:14:52;;;;;;;11.87;3.30;;;11.20;99.90;;;;;;6213319;22;20059;-87
2022/11/07 06:17:18;;;;;;;11.50;2.83;;;11.20;99.90;;;;;;6210747;23;20012;-84
2022/11/07 06:19:43;;;;;;;9.67;2.40;;;11.20;99.90;;;;;;6209966;23;20393;-84
2022/11/07 06:22:09;;;;;;;9.00;2.10;;;11.20;99.90;;;;;;6208279;23;20004;-84
2022/11/07 06:24:35;;;;;;;9.30;2.07;;;11.20;99.90;;;;;;6210220;23;20008;-84
2022/11/07 06:27:01;;;;;;;7.07;1.90;;;11.20;99.90;;;;;;6209083;23;20032;-85
2022/11/07 06:29:26;;;;;;;9.50;2.50;;;11.20;99.90;;;;;;6211110;23;20001;-85
2022/11/07 06:31:52;;;;;;;7.70;2.10;;;11.20;99.90;;;;;;6211666;23;20012;-84
2022/11/07 06:34:18;;;;;;;7.13;2.00;;;11.20;99.90;;;;;;6212127;23;20020;-85
2022/11/07 06:36:45;;;;;;;8.63;2.17;;;11.20;99.90;;;;;;6209084;23;20009;-85
2022/11/07 06:39:11;;;;;;;6.00;1.97;;;11.30;99.90;;;;;;6212246;23;20343;-84
2022/11/07 06:41:36;;;;;;;6.20;2.33;;;11.30;99.90;;;;;;6212301;23;20005;-84
2022/11/07 06:44:02;;;;;;;9.77;2.17;;;11.30;99.90;;;;;;6212687;23;20004;-84
2022/11/07 06:46:28;;;;;;;11.57;2.53;;;11.30;99.90;;;;;;6211932;23;20009;-85
2022/11/07 06:48:54;;;;;;;5.87;1.83;;;11.40;99.90;;;;;;6210721;23;20039;-84
2022/11/07 06:51:19;;;;;;;11.70;2.23;;;11.40;99.90;;;;;;6211662;23;20011;-84
2022/11/07 06:53:45;;;;;;;12.13;2.37;;;11.40;99.90;;;;;;6210877;23;20161;-84
2022/11/07 06:56:14;;;;;;;9.50;2.23;;;11.50;99.90;;;;;;6211853;23;20008;-84
2022/11/07 06:58:40;;;;;;;;;;;11.50;99.90;;;;;;6212629;23;20009;-84
2022/11/07 07:01:12;;;;;;;7.90;1.70;;;11.50;99.90;;;;;;6212540;23;20374;-85
2022/11/07 07:03:39;;;;;;;10.43;2.03;;;11.50;99.90;;;;;;6210891;23;20035;-84
2022/11/07 07:06:08;;;;;;;8.90;2.07;;;11.50;99.90;;;;;;6211010;23;20015;-85
2022/11/07 07:08:34;;;;;;;9.07;1.63;;;11.60;99.90;;;;;;6212024;23;20015;-85
2022/11/07 07:11:06;;;;;;;7.77;1.77;;;11.60;99.90;;;;;;6212204;23;20009;-84
2022/11/07 07:13:32;;;;;;;10.63;1.83;;;11.60;99.90;;;;;;6221316;22;20031;-84
2022/11/07 07:15:58;;;;;;;11.53;2.37;;;11.60;99.90;;;;;;6245493;22;20012;-85
2022/11/07 07:18:25;;;;;;;10.20;2.10;;;11.70;99.90;;;;;;6246021;22;20288;-84
2022/11/07 07:20:53;;;;;;;11.20;2.20;;;11.70;99.90;;;;;;6244068;22;20023;-84
2022/11/07 07:23:19;;;;;;;11.17;2.30;;;11.70;99.90;;;;;;6273262;22;20031;-85
2022/11/07 07:25:46;;;;;;;10.47;2.07;;;11.70;99.90;;;;;;6245944;22;20336;-84
2022/11/07 07:28:12;;;;;;;12.30;2.30;;;11.70;99.90;;;;;;6273654;22;20031;-84
2022/11/07 07:30:38;;;;;;;6.83;1.40;;;11.70;99.90;;;;;;6272824;22;20000;-85
2022/11/07 07:33:04;;;;;;;11.07;1.90;;;11.80;99.90;;;;;;6272986;22;20016;-84
2022/11/07 07:35:30;;;;;;;8.45;1.55;;;11.90;99.90;;;;;;6271432;22;20102;-85
2022/11/07 07:37:56;;;;;;;11.60;3.77;;;11.90;99.90;;;;;;6273089;22;20011;-84
2022/11/07 07:40:22;;;;;;;15.37;3.40;;;11.90;99.90;;;;;;6272347;22;20082;-85
2022/11/07 07:42:48;;;;;;;8.10;2.33;;;11.90;99.90;;;;;;6245760;22;20125;-84
2022/11/07 07:45:17;;;;;;;9.80;2.10;;;12.00;99.90;;;;;;6272830;22;20006;-83
2022/11/07 07:47:43;;;;;;;11.90;2.65;;;12.00;99.90;;;;;;6273339;22;20881;-84
2022/11/07 07:50:11;;;;;;;10.40;2.23;;;12.00;99.90;;;;;;6220352;22;20008;-84
2022/11/07 07:52:36;;;;;;;8.18;2.30;;;12.00;99.90;;;;;;6247510;22;20086;-85
2022/11/07 07:55:03;;;;;;;10.27;2.10;;;12.10;99.90;;;;;;6273388;22;20039;-83
2022/11/07 07:57:28;;;;;;;11.18;2.33;;;12.10;99.90;;;;;;6272700;22;20031;-83
2022/11/07 07:59:54;;;;;;;11.68;1.85;;;12.20;99.90;;;;;;6220070;22;20023;-84
2022/11/07 08:02:20;;;;;;;9.55;1.98;;;12.30;99.90;;;;;;6272613;22;20023;-83
2022/11/07 08:04:46;;;;;;;9.90;1.85;;;12.20;99.90;;;;;;6268939;22;19995;-84
2022/11/07 08:07:11;;;;;;;10.65;2.10;;;12.30;99.90;;;;;;6269746;22;20014;-83
2022/11/07 08:09:37;;;;;;;9.70;2.03;;;12.30;99.90;;;;;;6269646;22;20446;-84
2022/11/07 08:12:04;;;;;;;14.27;2.17;;;12.30;99.90;;;;;;6243288;22;20012;-86
2022/11/07 08:14:30;;;;;;;15.55;2.28;;;12.30;99.90;;;;;;6271306;22;20014;-84
2022/11/07 08:16:56;;;;;;;10.68;2.30;;;12.40;99.90;;;;;;6243730;22;20003;-84
2022/11/07 08:19:22;;;;;;;10.63;2.40;;;12.40;99.90;;;;;;6268704;22;20004;-84
2022/11/07 08:21:47;;;;;;;14.90;3.10;;;12.40;99.90;;;;;;6269942;22;20140;-84
2022/11/07 08:24:13;;;;;;;13.07;2.75;;;12.40;99.90;;;;;;6268704;22;20099;-84
2022/11/07 08:26:39;;;;;;;11.60;2.30;;;12.40;99.90;;;;;;6270694;22;20038;-84
2022/11/07 08:29:05;;;;;;;10.30;2.30;;;12.40;99.90;;;;;;6270482;22;20373;-84
2022/11/07 08:31:31;;;;;;;10.88;2.10;;;12.40;99.90;;;;;;6271349;22;20007;-84
2022/11/07 08:33:57;;;;;;;17.58;2.42;;;12.40;99.90;;;;;;6241230;22;20481;-84
2022/11/07 08:36:23;;;;;;;11.25;2.20;;;12.50;99.90;;;;;;6268057;22;20370;-84
2022/11/07 08:38:49;;;;;;;10.35;2.22;;;12.50;99.90;;;;;;6271172;22;20010;-84
2022/11/07 08:41:15;;;;;;;7.75;1.83;;;12.60;99.90;;;;;;6270977;22;20078;-84
2022/11/07 08:43:41;;;;;;;11.35;1.98;;;12.60;99.90;;;;;;6270919;22;20019;-84
2022/11/07 08:46:06;;;;;;;13.25;2.28;;;12.50;99.90;;;;;;6270797;22;20008;-84
2022/11/07 08:48:32;;;;;;;8.35;1.98;;;12.60;99.90;;;;;;6270973;22;20010;-84
2022/11/07 08:51:01;;;;;;;7.07;1.80;;;12.50;99.90;;;;;;6241488;22;19999;-84
2022/11/07 08:53:28;;;;;;;10.13;1.92;;;12.60;99.90;;;;;;6241432;22;20021;-84
2022/11/07 08:56:08;;;;;;;12.75;2.53;;;12.60;99.90;;;;;;6268879;22;20018;-84
2022/11/07 08:58:35;;;;;;;14.82;2.95;;;12.60;99.90;;;;;;6243713;22;20012;-84
2022/11/07 09:01:04;;;;;;;9.05;2.65;;;12.60;99.90;;;;;;6270781;22;20015;-84
2022/11/07 09:03:30;;;;;;;10.10;2.28;;;12.60;99.90;;;;;;6269620;22;20437;-84
2022/11/07 09:05:57;;;;;;;13.55;2.10;;;12.60;99.90;;;;;;6269635;22;20042;-84
2022/11/07 09:08:22;;;;;;;7.43;2.00;;;12.70;99.90;;;;;;6271541;22;20010;-84
2022/11/07 09:10:48;;;;;;;10.43;2.22;;;12.70;99.90;;;;;;6270785;22;20521;-84
2022/11/07 09:13:14;;;;;;;10.93;1.70;;;12.80;99.90;;;;;;6271802;22;20354;-85
2022/11/07 09:15:39;;;;;;;11.43;2.17;;;12.80;99.90;;;;;;6271430;22;20061;-86
2022/11/07 09:18:06;;;;;;;9.50;2.60;;;12.80;99.90;;;;;;6243885;22;20011;-86
2022/11/07 09:20:33;;;;;;;10.77;1.77;;;13.00;99.90;;;;;;6269890;22;20030;-87
2022/11/07 09:22:59;;;;;;;10.88;2.05;;;13.10;99.90;;;;;;6271335;22;20004;-88
2022/11/07 09:25:25;;;;;;;12.85;1.95;;;13.10;99.90;;;;;;6271499;22;20006;-87
2022/11/07 09:27:52;;;;;;;13.25;2.38;;;13.10;99.90;;;;;;6243086;22;20485;-87
2022/11/07 09:30:19;;;;;;;9.85;1.70;;;13.10;99.90;;;;;;6270558;22;20093;-87
2022/11/07 09:32:46;;;;;;;11.33;2.17;;;13.20;99.90;;;;;;6244509;22;20012;-86
2022/11/07 09:35:13;;;;;;;13.52;2.10;;;13.20;99.90;;;;;;6271152;22;20422;-87
2022/11/07 09:37:42;;;;;;;7.53;1.98;;;13.20;99.90;;;;;;6268777;22;20010;-87
2022/11/07 09:40:48;;;;;;;7.90;1.70;;;13.20;99.90;;;;;;6272122;22;20393;-92
2022/11/07 09:44:25;;;;;;;8.20;1.73;;;13.20;99.90;;;;;;6257050;22;20023;-88
2022/11/07 09:47:41;;;;;;;10.70;1.85;;;13.20;99.90;;;;;;6278111;22;20039;-89
2022/11/07 10:17:57;;;;;;;6.70;2.08;;;13.20;99.90;;;;;;6231890;22;20484;-94
2022/11/07 10:20:56;;;;;;;11.25;2.72;;;13.10;99.90;;;;;;6215062;22;20190;-88
2022/11/07 10:27:27;;;;;;;10.27;2.13;;;13.20;99.90;;;;;;6127194;23;20385;-86
2022/11/07 10:29:54;;;;;;;11.70;2.15;;;13.20;99.90;;;;;;6211958;23;20031;-83
2022/11/07 10:32:46;;;;;;;8.77;1.75;;;13.20;99.90;;;;;;6211056;23;20342;-84
2022/11/07 10:35:28;;;;;;;15.05;2.38;;;13.20;99.90;;;;;;6212960;23;20009;-83
2022/11/07 10:37:57;;;;;;;12.63;3.10;;;13.20;99.90;;;;;;6213135;23;20019;-84
2022/11/07 10:40:27;;;;;;;9.23;2.08;;;13.10;99.90;;;;;;6212708;23;20009;-83
2022/11/07 10:42:55;;;;;;;10.50;2.03;;;13.10;99.90;;;;;;6211773;23;20078;-83
2022/11/07 10:45:22;;;;;;;13.70;2.00;;;13.20;99.90;;;;;;6211578;23;20076;-83
2022/11/07 10:48:00;;;;;;;11.55;2.08;;;13.10;99.90;;;;;;6211570;23;20007;-83
2022/11/07 10:50:26;;;;;;;11.70;2.25;;;13.10;99.90;;;;;;6209927;23;20397;-83
2022/11/07 10:52:54;;;;;;;13.65;1.98;;;13.10;99.90;;;;;;6213670;23;20070;-84
2022/11/07 10:55:21;;;;;;;10.03;2.13;;;13.10;99.90;;;;;;6213798;23;20373;-84
2022/11/07 10:58:01;;;;;;;8.13;1.67;;;13.10;99.90;;;;;;6213579;23;20380;-83
2022/11/07 11:00:30;;;;;;;11.13;2.17;;;13.10;99.90;;;;;;6211040;23;20099;-83
2022/11/07 11:02:57;;;;;;;10.57;2.05;;;13.10;99.90;;;;;;6213232;23;20009;-83
2022/11/07 11:05:40;;;;;;;9.38;2.10;;;13.20;99.90;;;;;;6212346;23;20007;-83
2022/11/07 11:08:16;;;;;;;12.50;2.17;;;13.20;99.90;;;;;;6213341;23;20062;-84
2022/11/07 11:10:42;;;;;;;11.63;2.30;;;13.20;99.90;;;;;;6212702;23;20020;-83
2022/11/07 11:13:27;;;;;;;11.10;1.90;;;13.30;99.90;;;;;;6213001;23;20046;-84
2022/11/07 11:15:55;;;;;;;8.95;1.55;;;13.30;99.90;;;;;;6185205;23;20008;-84
2022/11/07 11:18:21;;;;;;;13.60;2.30;;;13.30;99.90;;;;;;6213088;23;20019;-84
2022/11/07 11:21:04;;;;;;;10.68;1.73;;;13.30;99.90;;;;;;6208881;23;20112;-83
2022/11/07 11:23:35;;;;;;;13.73;1.75;;;13.30;99.90;;;;;;6213082;23;20501;-84
2022/11/07 11:26:05;;;;;;;12.68;2.28;;;13.30;99.90;;;;;;6212463;23;20004;-84
2022/11/07 11:28:45;;;;;;;11.65;2.60;;;13.30;99.90;;;;;;6211269;23;20008;-83
2022/11/07 11:31:17;;;;;;;10.50;2.10;;;13.40;99.90;;;;;;6212599;23;20009;-84
2022/11/07 11:33:57;;;;;;;9.52;2.03;;;13.30;99.90;;;;;;6212972;23;20090;-83
2022/11/07 11:36:29;;;;;;;11.52;2.40;;;13.40;99.90;;;;;;6210929;23;20431;-84
2022/11/07 11:38:55;;;;;;;11.77;2.40;;;13.40;99.90;;;;;;6212816;23;20063;-83
2022/11/07 11:41:37;;;;;;;13.13;2.70;;;13.50;99.90;;;;;;6212535;23;20359;-83
2022/11/07 11:44:11;;;;;;;12.98;2.70;;;13.50;99.90;;;;;;6211185;23;20035;-84
2022/11/07 11:47:00;;;;;;;10.73;2.20;;;13.60;99.90;;;;;;6212343;23;20335;-84
2022/11/07 11:49:49;;;;;;;13.77;2.40;;;13.60;99.90;;;;;;6211762;23;20011;-84
2022/11/07 11:52:19;;;;;;;10.77;1.95;;;13.60;99.90;;;;;;6209493;23;20411;-84
2022/11/07 11:54:46;;;;;;;13.18;2.25;;;13.60;99.90;;;;;;6213049;23;20008;-84
2022/11/07 11:57:29;;;;;;;12.93;2.80;;;13.70;99.90;;;;;;6210453;23;20008;-84
2022/11/07 12:00:22;;;;;;;10.50;2.40;;;13.70;99.90;;;;;;6210530;23;20095;-84
2022/11/07 12:03:33;;;;;;;8.93;2.22;;;13.70;99.90;;;;;;6212489;23;20001;-84
2022/11/07 12:06:24;;;;;;;8.95;1.98;;;13.70;99.90;;;;;;6208868;23;20083;-84
2022/11/07 12:09:17;;;;;;;7.25;1.92;;;13.70;99.90;;;;;;6211944;23;20011;-84
2022/11/07 12:12:01;;;;;;;12.25;2.53;;;13.80;99.90;;;;;;6211877;23;20009;-84
2022/11/07 12:14:37;;;;;;;11.18;1.95;;;13.90;99.90;;;;;;6212386;23;20268;-83
2022/11/07 12:17:08;;;;;;;12.02;2.65;;;13.90;99.90;;;;;;6211659;23;20063;-84
2022/11/07 12:19:49;;;;;;;9.93;2.00;;;14.00;99.90;;;;;;6230469;22;20084;-84
2022/11/07 12:22:43;;;;;;;9.93;2.25;;;14.00;99.90;;;;;;6271521;22;20004;-84
2022/11/07 12:25:12;;;;;;;10.93;2.20;;;14.10;99.90;;;;;;6272806;22;20008;-84
2022/11/07 12:27:58;;;;;;;10.77;2.17;;;14.10;99.90;;;;;;6272446;22;20078;-84
2022/11/07 12:30:49;;;;;;;11.02;2.85;;;14.20;99.90;;;;;;6271298;22;20450;-84
2022/11/07 12:33:32;;;;;;;10.10;2.20;;;14.20;99.90;;;;;;6272859;22;20000;-84
2022/11/07 12:36:16;;;;;;;12.70;2.17;;;14.20;99.90;;;;;;6270733;22;20011;-84
2022/11/07 12:39:03;;;;;;;13.98;2.38;;;14.30;99.90;;;;;;6244911;22;20007;-84
2022/11/07 12:41:56;;;;;;;8.85;2.65;;;14.30;99.90;;;;;;6272401;22;20363;-84
2022/11/07 12:44:48;;;;;;;9.45;1.92;;;14.40;99.90;;;;;;6245835;22;20006;-84
2022/11/07 12:47:37;;;;;;;14.13;2.80;;;14.40;99.90;;;;;;6272438;22;20426;-84
2022/11/07 12:50:26;;;;;;;8.57;1.67;;;14.40;99.90;;;;;;6248618;22;20008;-84
2022/11/07 12:53:32;;;;;;;9.05;1.90;;;14.30;99.90;;;;;;6272679;22;20008;-84
2022/11/07 12:56:08;;;;;;;11.45;1.83;;;14.30;99.90;;;;;;6272034;22;20327;-84
2022/11/07 12:58:37;;;;;;;8.68;1.80;;;14.30;99.90;;;;;;6272253;22;20007;-84
2022/11/07 13:01:04;;;;;;;11.40;2.07;;;14.20;99.90;;;;;;6272119;22;20106;-84
2022/11/07 13:03:50;;;;;;;9.55;2.10;;;14.20;99.90;;;;;;6245313;22;20798;-83
2022/11/07 13:06:28;;;;;;;7.15;1.52;;;14.20;99.90;;;;;;6270406;22;20150;-84
2022/11/07 13:09:03;;;;;;;8.90;1.63;;;14.10;99.90;;;;;;6245085;22;20007;-84
2022/11/07 13:11:52;;;;;;;6.45;1.55;;;14.20;99.90;;;;;;6245176;22;20012;-84
2022/11/07 13:14:27;;;;;;;;;;;14.20;99.90;;;;;;6273307;22;20004;-84
2022/11/07 13:17:10;;;;;;;11.23;1.80;;;14.20;99.90;;;;;;6272156;22;19988;-84
2022/11/07 13:19:44;;;;;;;10.60;1.63;;;14.30;99.90;;;;;;6219639;22;20346;-84
2022/11/07 13:22:16;;;;;;;9.48;2.10;;;14.30;99.90;;;;;;6243608;22;20393;-84
2022/11/07 13:24:54;;;;;;;8.70;1.67;;;14.30;99.90;;;;;;6245323;22;20004;-84
2022/11/07 13:27:30;;;;;;;10.63;1.77;;;14.30;99.90;;;;;;6270766;22;20010;-84
2022/11/07 13:29:56;;;;;;;7.75;1.85;;;14.30;99.90;;;;;;6245249;22;20003;-84
2022/11/07 13:32:22;;;;;;;9.52;1.60;;;14.30;99.90;;;;;;6272282;22;20069;-84
2022/11/07 13:34:56;;;;;;;14.38;2.10;;;14.20;99.90;;;;;;6245529;22;20015;-84
2022/11/07 13:37:35;;;;;;;10.50;2.05;;;14.20;99.90;;;;;;6243051;22;20500;-84
2022/11/07 13:40:16;;;;;;;;;;;14.20;99.90;;;;;;6274120;22;20000;-85
2022/11/07 13:42:43;;;;;;;6.15;1.73;;;14.20;99.90;;;;;;6273325;22;19907;-86
2022/11/07 13:45:47;;;;;;;7.68;1.73;;;14.20;99.90;;;;;;6247976;22;20012;-88
2022/11/07 13:48:22;;;;;;;10.07;1.98;;;14.10;99.90;;;;;;6274940;22;20078;-85
2022/11/07 13:51:05;;;;;;;10.00;1.55;;;14.20;99.90;;;;;;6270949;22;20027;-84
2022/11/07 13:53:46;;;;;;;9.93;1.92;;;14.20;99.90;;;;;;6270318;22;20015;-85
2022/11/07 13:56:26;;;;;;;9.25;2.25;;;14.20;99.90;;;;;;6272302;22;20146;-84
2022/11/07 13:58:52;;;;;;;9.38;2.10;;;14.20;99.90;;;;;;6273392;22;20426;-85
2022/11/07 14:01:18;;;;;;;9.18;1.63;;;14.20;99.90;;;;;;6217359;22;20022;-85
2022/11/07 14:03:44;;;;;;;9.20;1.40;;;14.20;99.90;;;;;;6246960;22;20012;-85
2022/11/07 14:06:14;;;;;;;8.00;1.80;;;14.20;99.90;;;;;;6272414;22;20010;-85
2022/11/07 14:08:44;;;;;;;9.63;1.75;;;14.20;99.90;;;;;;6274266;22;20001;-85
2022/11/07 14:11:22;;;;;;;7.80;1.65;;;14.20;99.90;;;;;;6221205;22;20405;-85
2022/11/07 14:13:51;;;;;;;7.72;2.13;;;14.30;99.90;;;;;;6247257;22;20012;-84
2022/11/07 14:16:25;;;;;;;7.22;1.35;;;14.20;99.90;;;;;;6273388;22;20003;-85
2022/11/07 14:18:56;;;;;;;9.07;1.58;;;14.20;99.90;;;;;;6221340;22;20069;-85
2022/11/07 14:21:29;;;;;;;7.22;1.50;;;14.20;99.90;;;;;;6245751;22;20011;-85
2022/11/07 14:23:55;;;;;;;7.65;1.80;;;14.20;99.90;;;;;;6247221;22;20012;-85
2022/11/07 14:26:34;;;;;;;6.32;1.70;;;14.20;99.90;;;;;;6246561;22;20019;-86
2022/11/07 14:29:00;;;;;;;;;;;14.20;99.90;;;;;;6222072;22;20007;-85
2022/11/07 14:31:29;;;;;;;7.75;1.40;;;14.20;99.90;;;;;;6273631;22;19957;-85
2022/11/07 14:34:14;;;;;;;7.20;1.50;;;14.20;99.90;;;;;;6274140;22;20011;-85
2022/11/07 14:36:54;;;;;;;10.65;2.17;;;14.20;99.90;;;;;;6219620;22;20111;-86
2022/11/07 14:39:21;;;;;;;;;;;14.20;99.90;;;;;;6274547;22;20007;-85
2022/11/07 14:41:47;;;;;;;5.20;1.42;;;14.20;99.90;;;;;;6271826;22;20365;-85
2022/11/07 14:44:23;;;;;;;9.68;1.95;;;14.20;99.90;;;;;;6273801;22;20015;-85
2022/11/07 14:46:49;;;;;;;9.65;1.90;;;14.20;99.90;;;;;;6246143;22;20018;-85
2022/11/07 14:49:33;;;;;;;5.63;1.40;;;14.20;99.90;;;;;;6273779;22;20004;-85
2022/11/07 14:51:58;;;;;;;6.00;1.65;;;14.10;99.90;;;;;;6245261;22;20145;-85
2022/11/07 14:54:33;;;;;;;7.63;1.70;;;14.10;99.90;;;;;;6273646;22;20470;-86
2022/11/07 14:57:00;;;;;;;5.10;1.33;;;14.10;99.90;;;;;;6273383;22;20031;-85
2022/11/07 14:59:32;;;;;;;8.85;2.03;;;14.10;99.90;;;;;;6246275;22;20012;-85
2022/11/07 15:02:07;;;;;;;11.52;2.15;;;14.10;99.90;;;;;;6244439;22;20030;-84
2022/11/07 15:04:43;;;;;;;7.82;1.83;;;14.10;99.90;;;;;;6220038;22;20012;-85
2022/11/07 15:07:22;;;;;;;5.85;1.67;;;14.10;99.90;;;;;;6243595;22;20333;-85
2022/11/07 15:09:50;;;;;;;9.82;1.50;;;14.10;99.90;;;;;;6229491;22;20325;-84
2022/11/07 15:12:28;;;;;;;5.50;1.70;;;14.10;99.90;;;;;;6212741;23;20011;-83
2022/11/07 15:15:23;;;;;;;8.05;1.65;;;14.10;99.90;;;;;;6211434;23;20419;-84
2022/11/07 15:17:51;;;;;;;7.85;2.20;;;14.10;99.90;;;;;;6212544;23;20005;-84